X  Tanca Dades meteorològiques de l'aviació METAR        LGTS Thessaloniki Macedonia International
Temperatura
19°C Temperatura
8°C Rosada
49% Humitat



Vent
13 KM/H
8 MPH
4 M/S
7 NUS



130°
SE
Condicions actuals

Mostly Sunny Majoritàriament assolellat
Pressió 1017 (hPa) - 30.03 (inHg)
Visibilitat 6 (milla) - 10 (km)
Aeroport
Codi aeroport LGTS

Ubicació: Thessaloniki Macedonia International
Distància: 85 (km)

Metar:
METAR LGTS 241520Z 13007KT 100V190 9999 FEW030 19/08 Q1017 NOSIG

Temps: 24-02-2024 17:20 EET